Airfield :
LOGIN :

Register | Disclaimer

   EN    FR    IT 

 










Legend :    VFR   Marginal VFR   IFR   Intensive IFR   Very Intensive IFR
Visi :
Ceiling :
>= 8 km
>= 3000ft
5 to 8 km
1000 to 3000 ft
1500m to 5 km
500 to 1000 ft
800 to 1500m
200 to 500 ft
< 800m
< 200 ft
Symbols :   Thunderstorms  Fog  Heavy snow  Heavy precipitations  Wind > 20 kt
SIGMETs :     Misc.  Thunderstorms  Icing  Turbulence  Mountain Waves  Volcanic Ashes







- Airport Elevation : 267 ft


EGDR - Culdrose Navy

CURRENT METAR :
  • 220850Z 06012KT 9999 FEW012 SCT040 03/02 Q1022 BLU TEMPO SCT020 WHT

EXPIRED METARs :
  • 220750Z 06009KT 9000 BR FEW012 SCT020 02/01 Q1022 WHT TEMPO SCT020 WHT
  • 220650Z 07011KT 7000 HZ FEW012 SCT020 02/01 Q1022 WHT NOSIG
  • 220550Z 07010KT 8000 HZ FEW012 03/02 Q1021 BLU

TAF TAF EGDR
Valid from the 22 at 09:00 until the 22 at 18:00 UTC


220811Z 2209/2218 06015KT 9999 FEW015 SCT025
TEMPO 2209/2218 6000 HZ SCT015 BKN025
PROB40
TEMPO 2210/2215 6000 -RA SCT012 BKN018 2211/2213 09015KT
No reported NOTAMs for that airfield.



MET'MAP, your aeronautical weather chart ! - Copyright ORBIFLY December 2007 - Disclaimer

ORBIFLY MET'MAP TEAM :

Programming & Development : Alexandra Zaïnal
Concept & Development : Baudouin d'Aumeries
Co-Development & Prog : Marc-Olivier Méhu
Technical & hardware support : Manuel Goepfert

Contact : metmap@orbifly.com




SOURCES & CREDITS :

   NOAA